Time;durP1;ratioP1;P1;durP2;ratioP2;P2;SDS_P1;SDS_P2;PMS_P1;PMS_P2;Temp;Humidity;BMP_temperature;BMP_pressure;BME280_temperature;BME280_humidity;BME280_pressure;Samples;Min_cycle;Max_cycle;Signal;HPM_P1;HPM_P2
2021/09/20 00:00:13;;;;;;;14.90;7.50;;;;;;;3.98;89.43;99155.63;5113344;28;20054;-58
2021/09/20 00:02:38;;;;;;;13.60;7.72;;;;;;;3.98;89.15;99138.06;5113017;28;20031;-59
2021/09/20 00:05:06;;;;;;;17.33;7.93;;;;;;;4.02;89.34;99134.00;5114398;27;20042;-58
2021/09/20 00:07:32;;;;;;;15.05;8.30;;;;;;;4.01;88.92;99140.28;5114302;28;20065;-58
2021/09/20 00:09:58;;;;;;;13.68;7.07;;;;;;;4.03;88.83;99147.94;5114311;28;20165;-59
2021/09/20 00:12:24;;;;;;;16.15;8.10;;;;;;;4.09;88.53;99132.22;5114283;28;20040;-58
2021/09/20 00:14:49;;;;;;;11.48;6.10;;;;;;;4.07;87.57;99120.31;5114051;28;20066;-59
2021/09/20 00:17:15;;;;;;;12.25;6.25;;;;;;;4.08;87.71;99129.78;5114479;28;20118;-59
2021/09/20 00:19:41;;;;;;;13.60;6.60;;;;;;;4.12;88.34;99132.81;5114304;28;20588;-58
2021/09/20 00:22:07;;;;;;;14.63;7.32;;;;;;;4.13;88.99;99127.38;5113453;28;20378;-57
2021/09/20 00:24:33;;;;;;;14.05;7.50;;;;;;;4.11;88.79;99113.63;5114014;28;20043;-59
2021/09/20 00:27:11;;;;;;;8.55;5.47;;;;;;;4.06;87.91;99102.97;5114070;28;20044;-58
2021/09/20 00:29:37;;;;;;;13.27;7.10;;;;;;;4.08;88.08;99106.16;5113988;28;20047;-58
2021/09/20 00:32:04;;;;;;;18.15;7.90;;;;;;;4.10;88.86;99115.47;5113540;27;20048;-58
2021/09/20 00:34:30;;;;;;;15.50;7.15;;;;;;;4.10;88.32;99125.16;5113857;28;20047;-58
2021/09/20 00:36:56;;;;;;;12.27;6.40;;;;;;;4.09;88.88;99118.31;5113615;28;20043;-59
2021/09/20 00:39:21;;;;;;;12.77;6.70;;;;;;;4.12;88.25;99103.94;5113993;28;20089;-59
2021/09/20 00:41:47;;;;;;;10.50;5.30;;;;;;;4.10;88.37;99101.53;5113661;28;20489;-59
2021/09/20 00:44:13;;;;;;;12.82;6.13;;;;;;;4.12;89.10;99109.19;5113774;28;20134;-58
2021/09/20 00:46:39;;;;;;;12.38;6.43;;;;;;;4.09;88.13;99113.84;5113833;28;20035;-58
2021/09/20 00:49:05;;;;;;;12.18;6.78;;;;;;;4.14;88.25;99105.38;5113847;28;20524;-58
2021/09/20 00:51:31;;;;;;;11.48;6.03;;;;;;;4.13;88.41;99113.44;5113741;28;20126;-59
2021/09/20 00:53:56;;;;;;;13.02;6.38;;;;;;;4.12;88.26;99115.28;5113420;27;20047;-59
2021/09/20 00:56:22;;;;;;;12.88;6.55;;;;;;;4.15;89.29;99101.75;5095201;28;20039;-55
2021/09/20 00:58:55;;;;;;;12.23;6.00;;;;;;;4.13;88.87;99098.50;5112285;28;20051;-57
2021/09/20 01:01:21;;;;;;;11.73;6.22;;;;;;;4.13;88.84;99102.97;5113291;28;20122;-59
2021/09/20 01:03:47;;;;;;;9.70;5.47;;;;;;;4.13;87.96;99116.06;5111688;28;20068;-58
2021/09/20 01:06:13;;;;;;;10.80;5.75;;;;;;;4.12;88.67;99099.53;5113233;28;20141;-58
2021/09/20 01:08:39;;;;;;;12.20;5.80;;;;;;;4.14;88.10;99094.88;5113142;28;20413;-59
2021/09/20 01:11:05;;;;;;;10.02;6.15;;;;;;;4.10;87.65;99122.53;5111970;28;20079;-58
2021/09/20 01:13:32;;;;;;;8.75;5.10;;;;;;;4.16;87.69;99095.47;5112603;28;20043;-59
2021/09/20 01:15:57;;;;;;;11.00;5.50;;;;;;;4.16;87.61;99115.66;5112274;28;20596;-59
2021/09/20 01:18:23;;;;;;;12.82;5.80;;;;;;;4.22;87.52;99107.78;5112136;28;20127;-59
2021/09/20 01:20:49;;;;;;;8.93;5.00;;;;;;;4.22;87.88;99120.91;5112462;28;20062;-59
2021/09/20 01:23:15;;;;;;;8.43;5.43;;;;;;;4.25;86.75;99096.09;5113435;28;20035;-58
2021/09/20 01:25:42;;;;;;;8.10;4.65;;;;;;;4.23;87.32;99101.53;5113220;28;20044;-59
2021/09/20 01:28:09;;;;;;;9.20;5.00;;;;;;;4.24;87.15;99086.63;5113253;28;20040;-58
2021/09/20 01:30:35;;;;;;;8.85;5.05;;;;;;;4.26;87.32;99088.00;5112980;28;20046;-58
2021/09/20 01:33:01;;;;;;;8.40;5.03;;;;;;;4.29;87.68;99079.75;5111681;28;20569;-59
2021/09/20 01:35:28;;;;;;;13.35;5.53;;;;;;;4.29;87.67;99071.88;5112897;28;20123;-60
2021/09/20 01:37:54;;;;;;;9.95;5.68;;;;;;;4.31;87.14;99075.06;5112481;28;20040;-58
2021/09/20 01:40:20;;;;;;;9.70;5.72;;;;;;;4.35;87.41;99064.16;5111613;28;20046;-58
2021/09/20 01:42:46;;;;;;;8.80;5.03;;;;;;;4.33;86.23;99064.41;5112682;28;20400;-59
2021/09/20 01:45:14;;;;;;;10.63;5.93;;;;;;;4.40;86.60;99069.63;5112620;28;20046;-59
2021/09/20 01:47:41;;;;;;;8.43;4.68;;;;;;;4.40;86.43;99073.03;5112653;28;20035;-59
2021/09/20 01:50:08;;;;;;;10.40;5.30;;;;;;;4.39;86.74;99068.03;5112732;28;20044;-59
2021/09/20 01:52:35;;;;;;;8.63;4.72;;;;;;;4.41;86.31;99081.72;5111030;28;20078;-59
2021/09/20 01:55:01;;;;;;;9.68;5.05;;;;;;;4.44;86.41;99060.31;5112376;27;20424;-60
2021/09/20 01:57:26;;;;;;;11.88;4.97;;;;;;;4.44;86.07;99057.69;5111138;28;20489;-59
2021/09/20 01:59:52;;;;;;;9.05;4.90;;;;;;;4.46;85.97;99064.34;5110980;28;20074;-58
2021/09/20 02:02:19;;;;;;;8.98;4.97;;;;;;;4.39;86.12;99050.44;5112494;28;20044;-57
2021/09/20 02:04:45;;;;;;;7.95;3.92;;;;;;;4.47;85.65;99054.66;5112222;28;20066;-58
2021/09/20 02:07:11;;;;;;;11.05;5.25;;;;;;;4.47;85.47;99062.53;5112308;28;20043;-59
2021/09/20 02:09:37;;;;;;;7.95;4.88;;;;;;;4.49;86.25;99058.69;5112166;28;20123;-59
2021/09/20 02:12:03;;;;;;;9.93;4.53;;;;;;;4.50;85.74;99067.38;5112286;28;20130;-57
2021/09/20 02:14:29;;;;;;;9.63;5.10;;;;;;;4.51;85.96;99072.44;5093791;28;20044;-59
2021/09/20 02:16:54;;;;;;;6.60;3.65;;;;;;;4.53;85.19;99072.22;5112048;28;20087;-59
2021/09/20 02:19:20;;;;;;;6.78;4.63;;;;;;;4.52;85.21;99057.47;5112135;28;20043;-59
2021/09/20 02:21:46;;;;;;;7.32;4.13;;;;;;;4.45;84.75;99083.75;5110999;28;20058;-58
2021/09/20 02:24:12;;;;;;;8.48;4.40;;;;;;;4.49;85.55;99074.44;5111020;28;20500;-58
2021/09/20 02:26:38;;;;;;;9.95;4.90;;;;;;;4.51;85.42;99053.25;5111804;28;20412;-58
2021/09/20 02:29:04;;;;;;;4.45;3.10;;;;;;;4.44;85.60;99066.41;5110448;28;20095;-58
2021/09/20 02:31:30;;;;;;;8.13;4.43;;;;;;;4.48;86.18;99077.28;5111888;28;20420;-60
2021/09/20 02:33:56;;;;;;;6.97;3.97;;;;;;;4.44;86.02;99062.94;5111537;28;20180;-58
2021/09/20 02:36:23;;;;;;;6.50;3.60;;;;;;;4.44;85.73;99082.16;5111605;28;20043;-58
2021/09/20 02:38:49;;;;;;;6.40;4.10;;;;;;;4.42;86.29;99062.34;5111657;28;20414;-58
2021/09/20 02:41:15;;;;;;;6.80;4.53;;;;;;;4.43;86.25;99059.50;5111950;28;20058;-59
2021/09/20 02:43:42;;;;;;;8.48;4.13;;;;;;;4.36;86.09;99052.69;5112175;28;20047;-59
2021/09/20 02:46:08;;;;;;;6.82;3.92;;;;;;;4.33;86.08;99070.44;5111678;28;20139;-59
2021/09/20 02:48:33;;;;;;;6.35;4.07;;;;;;;4.40;86.39;99059.94;5111477;28;20472;-58
2021/09/20 02:51:00;;;;;;;7.03;4.20;;;;;;;4.42;86.04;99070.22;5111958;28;20036;-59
2021/09/20 02:53:25;;;;;;;7.07;3.95;;;;;;;4.40;85.70;99067.00;5111679;28;20147;-59
2021/09/20 02:55:51;;;;;;;5.90;3.33;;;;;;;4.38;86.24;99079.50;5111475;28;20067;-60
2021/09/20 02:58:17;;;;;;;6.53;3.97;;;;;;;4.36;86.71;99082.34;5111346;28;20071;-60
2021/09/20 03:00:43;;;;;;;5.00;3.47;;;;;;;4.30;86.45;99078.72;5111749;28;20140;-57
2021/09/20 03:03:09;;;;;;;6.18;3.42;;;;;;;4.34;87.71;99076.50;5110123;28;20488;-58
2021/09/20 03:05:35;;;;;;;5.05;3.08;;;;;;;4.28;87.13;99069.44;5111557;28;20459;-58
2021/09/20 03:08:02;;;;;;;6.85;3.63;;;;;;;4.29;87.94;99071.03;5110191;28;20539;-58
2021/09/20 03:10:28;;;;;;;6.55;3.80;;;;;;;4.23;88.77;99061.38;5110250;28;20048;-58
2021/09/20 03:12:54;;;;;;;7.07;3.83;;;;;;;4.18;87.56;99053.31;5110323;28;20069;-58
2021/09/20 03:15:19;;;;;;;6.63;3.92;;;;;;;4.16;88.63;99056.13;5110039;28;20046;-58
2021/09/20 03:17:45;;;;;;;5.43;3.35;;;;;;;4.14;88.19;99067.84;5110185;28;20348;-57
2021/09/20 03:20:12;;;;;;;5.53;3.30;;;;;;;4.14;88.95;99066.00;5111603;28;20036;-60
2021/09/20 03:22:38;;;;;;;8.25;4.22;;;;;;;4.19;89.10;99057.53;5111336;28;20094;-60
2021/09/20 03:25:05;;;;;;;6.20;3.90;;;;;;;4.16;89.31;99053.50;5111591;28;20131;-59
2021/09/20 03:27:31;;;;;;;9.45;4.15;;;;;;;4.13;88.85;99053.91;5110167;28;20100;-59
2021/09/20 03:29:57;;;;;;;4.97;2.92;;;;;;;4.11;89.39;99055.94;5111211;28;20048;-59
2021/09/20 03:32:22;;;;;;;5.50;3.13;;;;;;;4.09;89.57;99071.88;5111254;28;20064;-59
2021/09/20 03:34:48;;;;;;;7.82;3.65;;;;;;;4.12;89.62;99048.84;5111130;28;20127;-60
2021/09/20 03:37:14;;;;;;;7.32;3.60;;;;;;;4.09;90.64;99050.91;5111283;28;20515;-59
2021/09/20 03:39:40;;;;;;;7.10;4.00;;;;;;;4.08;90.59;99046.66;5111210;28;20078;-61
2021/09/20 03:42:06;;;;;;;5.03;2.92;;;;;;;4.05;90.03;99057.53;5111416;28;20047;-59
2021/09/20 03:44:31;;;;;;;6.38;3.17;;;;;;;4.02;90.17;99047.47;5111147;28;20500;-58
2021/09/20 03:46:57;;;;;;;3.88;3.08;;;;;;;4.03;90.49;99069.25;5111146;28;20061;-59
2021/09/20 03:49:23;;;;;;;5.43;3.55;;;;;;;4.04;90.68;99040.19;5111138;28;20040;-58
2021/09/20 03:51:49;;;;;;;6.95;3.53;;;;;;;4.06;90.46;99045.25;5110034;28;20043;-58
2021/09/20 03:54:14;;;;;;;5.55;3.00;;;;;;;4.07;91.04;99062.59;5111176;28;20095;-59
2021/09/20 03:56:40;;;;;;;4.50;2.75;;;;;;;4.04;90.65;99078.75;5111653;28;20035;-59
2021/09/20 03:59:06;;;;;;;5.80;3.22;;;;;;;4.06;90.92;99056.56;5114530;28;20043;-59
2021/09/20 04:01:32;;;;;;;6.57;3.03;;;;;;;4.08;90.04;99059.75;5114560;28;20042;-60
2021/09/20 04:03:58;;;;;;;5.78;3.00;;;;;;;4.09;90.92;99058.78;5113578;28;20044;-60
2021/09/20 04:06:24;;;;;;;8.38;3.22;;;;;;;4.09;90.02;99050.91;5114590;28;20036;-58
2021/09/20 04:08:50;;;;;;;8.43;3.80;;;;;;;4.13;90.95;99047.88;5114546;28;20043;-58
2021/09/20 04:11:16;;;;;;;6.10;3.42;;;;;;;4.13;90.51;99058.38;5113014;28;20039;-60
2021/09/20 04:13:42;;;;;;;6.95;3.63;;;;;;;4.10;90.06;99049.88;5114493;28;20039;-58
2021/09/20 04:16:07;;;;;;;6.72;3.58;;;;;;;4.14;90.35;99067.84;5114229;28;20042;-60
2021/09/20 04:18:33;;;;;;;6.25;3.67;;;;;;;4.15;90.66;99065.03;5114654;28;20419;-58
2021/09/20 04:20:59;;;;;;;6.85;3.70;;;;;;;4.13;90.21;99058.38;5113238;28;20520;-60
2021/09/20 04:23:25;;;;;;;4.03;2.58;;;;;;;4.15;89.85;99090.44;5114524;28;20043;-59
2021/09/20 04:25:52;;;;;;;6.30;3.40;;;;;;;4.20;90.66;99067.03;5113996;28;20463;-59
2021/09/20 04:28:19;;;;;;;6.68;3.33;;;;;;;4.20;90.21;99072.25;5114507;28;20063;-59
2021/09/20 04:30:45;;;;;;;3.22;2.50;;;;;;;4.17;90.37;99065.59;5113853;28;20047;-58
2021/09/20 04:33:11;;;;;;;4.82;3.30;;;;;;;4.19;90.22;99078.53;5113595;28;20495;-59
2021/09/20 04:35:37;;;;;;;6.03;3.47;;;;;;;4.20;90.58;99080.13;5113935;28;20056;-60
2021/09/20 04:38:03;;;;;;;3.85;2.47;;;;;;;4.18;90.42;99063.81;5108113;28;20396;-58
2021/09/20 04:40:29;;;;;;;6.07;3.20;;;;;;;4.17;90.17;99078.72;5103430;28;20035;-58
2021/09/20 04:42:54;;;;;;;7.28;3.80;;;;;;;4.23;90.68;99069.22;5101630;28;20028;-56
2021/09/20 04:45:20;;;;;;;7.13;3.55;;;;;;;4.26;90.00;99068.81;5100876;28;20504;-59
2021/09/20 04:47:46;;;;;;;5.70;2.90;;;;;;;4.23;89.89;99069.22;5103293;28;20040;-58
2021/09/20 04:50:12;;;;;;;5.93;3.55;;;;;;;4.25;90.18;99072.47;5101047;28;20040;-60
2021/09/20 04:52:38;;;;;;;4.47;3.15;;;;;;;4.19;89.84;99094.28;5102593;27;20081;-57
2021/09/20 04:55:04;;;;;;;4.30;2.90;;;;;;;4.19;90.17;99068.84;5102341;28;20329;-61
2021/09/20 04:57:30;;;;;;;5.53;3.33;;;;;;;4.23;90.09;99083.16;5109280;28;20040;-59
2021/09/20 04:59:56;;;;;;;7.07;3.80;;;;;;;4.27;90.87;99075.72;5113445;28;20090;-62
2021/09/20 05:02:21;;;;;;;6.05;3.20;;;;;;;4.20;88.78;99073.06;5104351;28;20043;-58
2021/09/20 05:04:47;;;;;;;4.82;3.38;;;;;;;4.26;89.71;99102.94;5092845;28;20146;-59
2021/09/20 05:07:13;;;;;;;5.50;3.03;;;;;;;4.26;89.68;99066.19;5093017;28;20482;-58
2021/09/20 05:09:41;;;;;;;5.07;3.28;;;;;;;4.27;89.35;99089.63;5106154;28;20533;-56
2021/09/20 05:12:08;;;;;;;5.20;3.40;;;;;;;4.28;89.67;99083.34;5074596;28;20058;-58
2021/09/20 05:14:34;;;;;;;5.35;3.03;;;;;;;4.32;89.16;99076.72;5091362;28;20040;-57
2021/09/20 05:17:00;;;;;;;6.90;3.58;;;;;;;4.36;88.90;99084.97;5092874;28;20094;-58
2021/09/20 05:19:25;;;;;;;6.25;3.90;;;;;;;4.39;88.59;99081.13;5091492;28;20125;-58
2021/09/20 05:21:52;;;;;;;6.55;3.80;;;;;;;4.40;88.53;99090.63;5092163;28;20467;-59
2021/09/20 05:24:18;;;;;;;5.70;3.67;;;;;;;4.42;88.58;99081.53;5092416;28;20131;-59
2021/09/20 05:26:44;;;;;;;6.05;3.72;;;;;;;4.43;88.48;99084.97;5091316;28;20036;-59
2021/09/20 05:29:09;;;;;;;5.88;3.47;;;;;;;4.49;88.16;99092.81;5092499;28;20043;-59
2021/09/20 05:31:35;;;;;;;5.07;2.97;;;;;;;4.46;88.87;99066.19;5092676;28;20028;-60
2021/09/20 05:34:01;;;;;;;6.38;3.20;;;;;;;4.49;88.02;99077.06;5092168;28;20479;-59
2021/09/20 05:36:27;;;;;;;5.80;3.30;;;;;;;4.56;88.91;99100.69;5092299;28;20501;-60
2021/09/20 05:38:52;;;;;;;6.20;3.13;;;;;;;4.58;88.03;99072.41;5092296;28;20074;-58
2021/09/20 05:41:18;;;;;;;5.55;4.07;;;;;;;4.60;88.69;99108.97;5092215;28;20043;-60
2021/09/20 05:43:44;;;;;;;4.38;3.05;;;;;;;4.58;87.94;99079.47;5090159;28;20040;-59
2021/09/20 05:46:10;;;;;;;10.55;3.85;;;;;;;4.61;88.33;99093.00;5089405;28;20089;-59
2021/09/20 05:48:35;;;;;;;4.30;2.80;;;;;;;4.64;88.10;99078.66;5089495;28;20075;-60
2021/09/20 05:51:01;;;;;;;4.75;3.08;;;;;;;4.66;88.21;99085.31;5088803;28;20404;-61
2021/09/20 05:53:27;;;;;;;5.65;3.53;;;;;;;4.66;87.96;99084.50;5089716;28;20044;-60
2021/09/20 05:55:53;;;;;;;7.10;2.97;;;;;;;4.67;88.32;99063.28;5088757;28;20536;-58
2021/09/20 05:58:19;;;;;;;6.82;2.92;;;;;;;4.67;87.99;99068.53;5085889;28;20079;-59
2021/09/20 06:00:45;;;;;;;4.13;2.80;;;;;;;4.74;87.38;99085.09;5090712;28;20040;-59
2021/09/20 06:03:11;;;;;;;6.15;3.17;;;;;;;4.75;86.89;99091.16;5087294;28;20497;-58
2021/09/20 06:05:38;;;;;;;5.13;3.55;;;;;;;4.76;87.20;99077.81;5087817;28;20097;-56
2021/09/20 06:08:06;;;;;;;5.35;3.22;;;;;;;4.78;86.89;99074.97;5087234;28;20080;-58
2021/09/20 06:10:32;;;;;;;3.85;2.30;;;;;;;4.74;87.03;99077.22;5089401;28;20067;-57
2021/09/20 06:12:58;;;;;;;4.90;3.03;;;;;;;4.80;87.04;99082.66;5086837;28;20086;-58
2021/09/20 06:15:24;;;;;;;3.55;2.22;;;;;;;4.77;86.48;99078.63;5087775;28;20570;-58
2021/09/20 06:17:50;;;;;;;3.30;2.42;;;;;;;4.77;86.84;99092.56;5071362;28;20040;-59
2021/09/20 06:20:16;;;;;;;4.65;3.10;;;;;;;4.77;86.94;99083.88;5089182;28;20385;-61
2021/09/20 06:22:42;;;;;;;4.18;2.90;;;;;;;4.80;87.09;99086.09;5088933;28;20119;-59
2021/09/20 06:25:09;;;;;;;4.90;2.28;;;;;;;4.82;86.52;99105.03;5089496;28;20420;-60
2021/09/20 06:27:35;;;;;;;4.95;2.70;;;;;;;4.82;87.42;99083.25;5090251;28;20043;-59
2021/09/20 06:30:04;;;;;;;5.38;3.03;;;;;;;4.79;87.34;99089.72;5090457;28;20051;-59
2021/09/20 06:32:30;;;;;;;5.78;3.70;;;;;;;4.88;86.99;99109.50;5090016;28;20055;-59
2021/09/20 06:34:56;;;;;;;4.30;2.92;;;;;;;4.90;87.31;99096.16;5086321;28;20568;-58
2021/09/20 06:37:22;;;;;;;4.90;3.03;;;;;;;4.92;87.49;99109.88;5088942;28;20036;-59
2021/09/20 06:39:47;;;;;;;3.58;2.50;;;;;;;4.88;87.25;99087.66;5089011;28;20040;-59
2021/09/20 06:42:13;;;;;;;2.30;1.77;;;;;;;4.89;86.85;99105.84;5088984;28;20042;-57
2021/09/20 06:44:39;;;;;;;5.25;3.30;;;;;;;4.89;87.11;99090.09;5089599;28;20524;-58
2021/09/20 06:47:06;;;;;;;4.97;2.85;;;;;;;4.91;86.42;99100.38;5087926;28;20036;-60
2021/09/20 06:49:32;;;;;;;4.43;2.67;;;;;;;4.89;86.25;99100.59;5088657;28;20481;-58
2021/09/20 06:51:58;;;;;;;5.85;2.38;;;;;;;4.92;86.26;99105.44;5089392;28;20127;-58
2021/09/20 06:54:24;;;;;;;6.38;3.35;;;;;;;4.97;87.60;99097.75;5089205;28;20138;-57
2021/09/20 06:56:50;;;;;;;4.72;3.10;;;;;;;5.06;86.55;99110.63;5087992;28;20036;-58
2021/09/20 06:59:16;;;;;;;7.47;3.85;;;;;;;5.09;87.00;99097.06;5088128;28;20052;-59
2021/09/20 07:01:42;;;;;;;7.07;4.00;;;;;;;5.10;86.94;99096.06;5088341;28;20481;-58
2021/09/20 07:04:08;;;;;;;5.32;2.85;;;;;;;5.04;87.25;99113.47;5086083;28;20101;-58
2021/09/20 07:06:33;;;;;;;4.15;3.20;;;;;;;5.04;86.29;99116.09;5095678;28;20040;-58
2021/09/20 07:08:59;;;;;;;9.15;4.90;;;;;;;5.06;87.42;99108.00;5096829;28;20092;-59
2021/09/20 07:11:26;;;;;;;6.88;4.88;;;;;;;5.11;86.82;99102.94;5095848;28;20550;-58
2021/09/20 07:13:52;;;;;;;8.32;5.00;;;;;;;5.13;87.42;99114.84;5098784;28;20052;-57
2021/09/20 07:16:18;;;;;;;6.88;4.00;;;;;;;5.13;87.11;99109.59;5097312;28;20490;-58
2021/09/20 07:18:43;;;;;;;5.28;2.90;;;;;;;5.13;86.44;99109.59;5096911;28;20424;-58
2021/09/20 07:21:09;;;;;;;6.93;3.17;;;;;;;5.15;87.27;99112.84;5095093;28;20039;-59
2021/09/20 07:23:35;;;;;;;4.00;2.47;;;;;;;5.14;86.10;99110.41;5089081;28;20044;-59
2021/09/20 07:26:03;;;;;;;4.78;2.97;;;;;;;5.14;87.53;99120.91;5068822;28;20615;-59
2021/09/20 07:28:29;;;;;;;4.50;2.90;;;;;;;5.16;87.30;99109.19;5086194;28;20031;-60
2021/09/20 07:30:54;;;;;;;7.45;3.75;;;;;;;5.24;87.32;99108.16;5087394;28;20040;-60
2021/09/20 07:33:20;;;;;;;9.85;3.50;;;;;;;5.23;86.84;99132.78;5090155;28;20052;-57
2021/09/20 07:35:46;;;;;;;6.22;3.60;;;;;;;5.18;86.97;99122.94;5092810;28;20481;-60
2021/09/20 07:38:12;;;;;;;6.15;4.30;;;;;;;5.21;88.03;99122.50;5089154;28;20214;-58
2021/09/20 07:40:38;;;;;;;5.97;3.10;;;;;;;5.13;86.85;99114.84;5091147;28;20105;-57
2021/09/20 07:43:04;;;;;;;5.82;3.55;;;;;;;5.14;87.52;99110.41;5090737;28;20510;-57
2021/09/20 07:45:31;;;;;;;9.70;4.18;;;;;;;5.18;87.49;99099.28;5089273;28;20070;-59
2021/09/20 07:47:57;;;;;;;5.60;2.95;;;;;;;5.17;87.90;99105.53;5090231;28;20076;-60
2021/09/20 07:50:23;;;;;;;3.97;2.70;;;;;;;5.18;87.57;99104.53;5090871;28;20141;-58
2021/09/20 07:52:49;;;;;;;6.30;3.60;;;;;;;5.19;88.08;99100.06;5091039;28;20517;-56
2021/09/20 07:55:16;;;;;;;5.07;2.65;;;;;;;5.16;87.92;99114.44;5091087;28;20040;-60
2021/09/20 07:57:44;;;;;;;5.53;3.55;;;;;;;5.20;88.70;99094.59;5088287;28;20048;-56
2021/09/20 08:00:11;;;;;;;7.82;4.07;;;;;;;5.23;88.55;99096.00;5088840;28;20089;-59
2021/09/20 08:02:37;;;;;;;5.25;3.05;;;;;;;5.28;87.71;99125.09;5090318;28;20336;-60
2021/09/20 08:05:03;;;;;;;4.53;2.95;;;;;;;5.35;87.80;99096.94;5091557;28;20485;-59
2021/09/20 08:07:29;;;;;;;4.63;3.42;;;;;;;5.34;88.04;99102.44;5108675;28;20032;-58
2021/09/20 08:09:55;;;;;;;4.78;3.75;;;;;;;5.35;87.24;99110.09;5111837;28;20463;-61
2021/09/20 08:12:21;;;;;;;6.15;3.40;;;;;;;5.30;87.50;99109.94;5111477;28;20052;-56
2021/09/20 08:14:47;;;;;;;6.43;3.25;;;;;;;5.28;87.78;99090.94;5111679;28;20066;-56
2021/09/20 08:17:13;;;;;;;6.28;3.28;;;;;;;5.27;86.81;99105.09;5110729;28;20043;-53
2021/09/20 08:19:40;;;;;;;5.30;3.08;;;;;;;5.24;86.96;99087.13;5091125;28;20503;-58
2021/09/20 08:22:07;;;;;;;6.55;2.50;;;;;;;5.29;87.03;99105.66;5111024;28;20071;-59
2021/09/20 08:24:33;;;;;;;3.67;2.80;;;;;;;5.28;87.05;99096.19;5112038;28;20142;-57
2021/09/20 08:26:59;;;;;;;4.50;3.33;;;;;;;5.26;87.11;99092.16;5110459;28;20469;-57
2021/09/20 08:29:25;;;;;;;3.10;2.22;;;;;;;5.33;87.23;99101.63;5110163;28;20301;-56
2021/09/20 08:31:51;;;;;;;4.32;2.40;;;;;;;5.34;87.16;99105.84;5102080;28;20074;-57
2021/09/20 08:34:16;;;;;;;3.97;2.83;;;;;;;5.33;88.08;99111.34;5086816;28;20536;-57
2021/09/20 08:36:42;;;;;;;2.55;2.03;;;;;;;5.32;87.06;99122.84;5090924;28;20469;-58
2021/09/20 08:39:08;;;;;;;4.60;3.42;;;;;;;5.39;87.44;99102.63;5088381;28;20493;-57
2021/09/20 08:41:36;;;;;;;3.33;2.35;;;;;;;5.36;87.24;99110.91;5090773;28;20440;-59
2021/09/20 08:44:03;;;;;;;4.38;2.55;;;;;;;5.35;86.90;99102.19;5071552;28;20042;-58
2021/09/20 08:46:29;;;;;;;2.95;2.65;;;;;;;5.40;87.06;99107.66;5088719;28;20036;-59
2021/09/20 08:48:54;;;;;;;5.30;3.00;;;;;;;5.45;87.36;99094.69;5070886;28;20598;-59
2021/09/20 08:51:21;;;;;;;2.25;2.00;;;;;;;5.44;86.68;99097.50;5089879;28;20123;-58
2021/09/20 08:53:47;;;;;;;6.38;3.67;;;;;;;5.46;87.30;99111.25;5089524;28;20482;-58
2021/09/20 08:56:13;;;;;;;2.28;2.08;;;;;;;5.41;86.48;99127.69;5088256;28;20043;-58
2021/09/20 08:58:40;;;;;;;4.40;2.83;;;;;;;5.41;87.11;99105.81;5089597;28;20044;-57
2021/09/20 09:01:06;;;;;;;3.42;2.60;;;;;;;5.45;87.28;99104.41;5088505;28;20456;-58
2021/09/20 09:03:32;;;;;;;3.47;2.35;;;;;;;5.43;87.18;99095.91;5089638;28;20044;-59
2021/09/20 09:05:59;;;;;;;5.18;3.28;;;;;;;5.48;88.19;99106.59;5089267;28;20039;-59
2021/09/20 09:08:35;;;;;;;4.75;2.95;;;;;;;5.51;86.52;99098.28;5090182;28;20050;-58
2021/09/20 09:11:13;;;;;;;5.75;3.78;;;;;;;5.51;87.72;99092.22;5088541;28;20039;-59
2021/09/20 09:13:42;;;;;;;5.10;3.38;;;;;;;5.51;87.28;99092.22;5087911;28;20052;-59
2021/09/20 09:16:23;;;;;;;5.15;3.03;;;;;;;5.52;88.00;99092.00;5088231;28;20036;-56
2021/09/20 09:19:01;;;;;;;3.63;2.78;;;;;;;5.58;87.72;99111.41;5086128;28;20379;-60
2021/09/20 09:21:29;;;;;;;5.47;3.03;;;;;;;5.64;87.23;99100.03;5087619;28;20079;-59
2021/09/20 09:24:03;;;;;;;3.25;2.35;;;;;;;5.55;86.20;99101.28;5088140;28;20131;-58
2021/09/20 09:26:29;;;;;;;3.45;2.38;;;;;;;5.60;86.97;99106.75;5087693;28;20043;-58
2021/09/20 09:29:09;;;;;;;3.63;2.65;;;;;;;5.47;86.54;99108.44;5089354;28;20150;-59
2021/09/20 09:31:37;;;;;;;3.10;2.30;;;;;;;5.46;87.19;99090.22;5088356;28;20505;-59
2021/09/20 09:34:33;;;;;;;3.83;2.67;;;;;;;5.47;86.89;99094.47;5085542;28;20059;-57
2021/09/20 09:37:08;;;;;;;2.35;2.03;;;;;;;5.54;86.83;99089.97;5088565;28;20040;-59
2021/09/20 09:39:38;;;;;;;3.95;2.50;;;;;;;5.63;86.39;99101.84;5088339;28;20066;-58
2021/09/20 09:42:28;;;;;;;3.22;2.58;;;;;;;5.65;87.23;99094.56;5035126;28;20126;-57
2021/09/20 09:44:54;;;;;;;3.80;2.13;;;;;;;5.63;86.41;99093.97;5085830;28;20055;-61
2021/09/20 09:47:28;;;;;;;3.58;2.75;;;;;;;5.62;87.14;99095.00;5061482;28;20524;-57
2021/09/20 09:50:13;;;;;;;3.45;2.60;;;;;;;5.70;86.37;99104.44;5087046;28;20577;-58
2021/09/20 09:52:39;;;;;;;5.38;2.85;;;;;;;5.69;86.67;99084.44;5088048;28;20058;-59
2021/09/20 09:55:06;;;;;;;3.38;2.50;;;;;;;5.67;87.14;99082.00;5087510;28;20052;-59
2021/09/20 09:57:37;;;;;;;3.58;2.92;;;;;;;5.67;87.00;99100.41;5088341;28;20088;-58
2021/09/20 10:00:13;;;;;;;4.80;2.47;;;;;;;5.74;86.83;99094.31;5042351;28;20044;-55
2021/09/20 10:02:44;;;;;;;3.75;2.58;;;;;;;5.66;86.48;99106.69;5091693;28;20035;-58
2021/09/20 10:05:19;;;;;;;3.88;2.42;;;;;;;5.67;86.34;99092.50;5082343;28;20070;-60
2021/09/20 10:07:48;;;;;;;7.13;3.65;;;;;;;5.69;87.35;99097.56;5082063;28;20036;-62
2021/09/20 10:10:19;;;;;;;3.67;2.40;;;;;;;5.70;86.12;99110.50;5036644;28;20523;-59
2021/09/20 10:12:47;;;;;;;4.97;3.13;;;;;;;5.70;86.13;99094.72;5084532;28;20044;-59
2021/09/20 10:15:16;;;;;;;3.13;2.35;;;;;;;5.63;86.42;99107.13;5088311;28;20097;-59
2021/09/20 10:17:42;;;;;;;9.27;4.40;;;;;;;5.68;86.81;99099.41;5090575;28;20036;-59
2021/09/20 10:20:13;;;;;;;5.70;3.20;;;;;;;5.68;86.71;99104.66;5089038;28;20562;-60
2021/09/20 10:22:39;;;;;;;3.65;2.50;;;;;;;5.63;86.60;99101.84;5090746;28;20108;-58
2021/09/20 10:25:08;;;;;;;5.78;3.45;;;;;;;5.67;87.18;99099.59;5088972;28;20130;-58
2021/09/20 10:27:34;;;;;;;4.45;3.08;;;;;;;5.69;87.05;99103.63;5089618;28;20050;-59
2021/09/20 10:30:16;;;;;;;3.95;2.85;;;;;;;5.69;86.36;99106.25;5088057;28;20574;-59
2021/09/20 10:32:49;;;;;;;7.20;3.40;;;;;;;5.63;87.25;99098.44;5087483;28;20058;-58
2021/09/20 10:35:27;;;;;;;5.32;3.58;;;;;;;5.67;87.71;99102.22;5089995;28;20047;-59
2021/09/20 10:37:58;;;;;;;4.68;2.67;;;;;;;5.61;86.96;99100.44;5090938;28;20126;-59
2021/09/20 10:40:24;;;;;;;3.28;2.50;;;;;;;5.58;87.48;99106.94;5088396;28;20228;-59
2021/09/20 10:43:02;;;;;;;5.38;3.88;;;;;;;5.64;87.51;99086.88;5089887;28;20043;-57
2021/09/20 10:45:46;;;;;;;3.35;2.55;;;;;;;5.65;87.46;99094.56;5090070;28;20050;-57
2021/09/20 10:48:19;;;;;;;5.00;2.67;;;;;;;5.67;87.23;99107.50;5090371;28;20051;-57
2021/09/20 10:50:54;;;;;;;5.72;2.53;;;;;;;5.63;86.69;99095.78;5088868;28;20044;-58
2021/09/20 10:53:29;;;;;;;4.07;2.90;;;;;;;5.64;87.23;99092.13;5088906;28;20093;-58
2021/09/20 10:56:08;;;;;;;5.30;2.53;;;;;;;5.63;86.92;99103.69;5086901;28;20052;-56
2021/09/20 10:58:57;;;;;;;2.88;2.33;;;;;;;5.63;87.29;99099.22;5071464;28;20044;-58
2021/09/20 11:01:23;;;;;;;3.78;2.53;;;;;;;5.63;86.78;99098.44;5075589;28;20055;-58
2021/09/20 11:04:16;;;;;;;3.13;2.42;;;;;;;5.62;87.23;99109.97;5086436;28;20436;-60
2021/09/20 11:06:43;;;;;;;3.20;2.30;;;;;;;5.61;86.95;99100.44;5080880;28;20554;-59
2021/09/20 11:09:09;;;;;;;5.55;3.47;;;;;;;5.65;87.09;99104.28;5089693;28;20044;-59
2021/09/20 11:11:40;;;;;;;6.57;3.25;;;;;;;5.65;88.02;99107.72;5087832;28;20047;-59
2021/09/20 11:14:21;;;;;;;5.10;2.83;;;;;;;5.65;87.76;99112.19;5092724;28;20139;-58
2021/09/20 11:16:53;;;;;;;6.03;3.42;;;;;;;5.63;87.04;99106.31;5092301;28;20302;-59
2021/09/20 11:19:27;;;;;;;5.75;3.40;;;;;;;5.65;87.88;99101.66;5092971;28;20177;-58
2021/09/20 11:24:35;;;;;;;5.60;3.53;;;;;;;5.70;87.18;99104.44;5092268;28;20044;-60
2021/09/20 11:27:02;;;;;;;6.90;3.80;;;;;;;5.73;87.22;99111.91;5092885;28;20058;-59
2021/09/20 11:29:28;;;;;;;4.43;2.65;;;;;;;5.73;86.86;99104.00;5088499;28;20088;-59
2021/09/20 11:31:55;;;;;;;4.25;2.90;;;;;;;5.71;87.08;99100.81;5093619;28;20085;-59
2021/09/20 11:34:32;;;;;;;4.15;3.08;;;;;;;5.81;87.31;99100.31;5092757;28;20052;-60
2021/09/20 11:37:19;;;;;;;4.72;3.58;;;;;;;5.83;87.67;99098.31;5091850;28;20501;-58
2021/09/20 11:39:55;;;;;;;5.03;3.63;;;;;;;5.86;87.71;99090.78;5092505;28;20123;-58
2021/09/20 11:42:25;;;;;;;4.93;2.90;;;;;;;5.88;87.73;99101.06;5092440;28;20067;-59
2021/09/20 11:44:52;;;;;;;4.88;3.20;;;;;;;5.83;87.54;99093.03;5093188;28;20101;-60